createdAt,value
2023-03-18T00:00:22.451Z,74.57
2023-03-18T00:02:58.386Z,75.36
2023-03-18T00:05:41.764Z,75.50
2023-03-18T00:08:31.758Z,75.32
2023-03-18T00:11:08.774Z,74.50
2023-03-18T00:13:48.122Z,74.95
2023-03-18T00:16:31.970Z,75.17
2023-03-18T00:19:09.478Z,75.38
2023-03-18T00:21:53.430Z,75.68
2023-03-18T00:24:42.692Z,75.88
2023-03-18T00:27:19.600Z,76.80
2023-03-18T00:30:06.177Z,76.49
2023-03-18T00:32:47.428Z,76.41
2023-03-18T00:35:21.633Z,77.26
2023-03-18T00:38:15.846Z,77.20
2023-03-18T00:41:11.751Z,77.22
2023-03-18T00:43:59.641Z,77.09
2023-03-18T00:46:47.029Z,76.66
2023-03-18T00:49:32.310Z,76.17
2023-03-18T00:52:19.770Z,75.22
2023-03-18T00:55:08.304Z,74.11
2023-03-18T00:58:00.528Z,74.23
2023-03-18T01:00:39.007Z,73.99
2023-03-18T01:03:20.768Z,73.27
2023-03-18T01:05:58.684Z,73.15
2023-03-18T01:08:32.259Z,72.76
2023-03-18T01:11:20.425Z,72.65
2023-03-18T01:14:04.798Z,72.65
2023-03-18T01:16:43.022Z,72.80
2023-03-18T01:19:26.255Z,73.07
2023-03-18T01:22:05.130Z,73.05
2023-03-18T01:24:50.818Z,73.14
2023-03-18T01:27:37.653Z,73.35
2023-03-18T01:30:22.010Z,73.38
2023-03-18T01:33:13.237Z,73.22
2023-03-18T01:36:00.008Z,73.02
2023-03-18T01:38:43.702Z,72.80
2023-03-18T01:41:22.300Z,73.65
2023-03-18T01:44:05.400Z,73.79
2023-03-18T01:46:47.586Z,74.47
2023-03-18T01:49:29.074Z,74.32
2023-03-18T01:52:38.711Z,75.36
2023-03-18T01:55:38.760Z,76.07
2023-03-18T01:58:36.045Z,76.39
2023-03-18T02:01:33.889Z,77.03
2023-03-18T02:04:18.886Z,77.88
2023-03-18T02:06:59.680Z,77.98
2023-03-18T02:09:41.025Z,79.15
2023-03-18T02:12:35.363Z,78.33
2023-03-18T02:15:23.688Z,78.29
2023-03-18T02:18:09.063Z,78.59
2023-03-18T02:21:18.856Z,78.12
2023-03-18T02:24:24.625Z,77.60
2023-03-18T02:27:13.193Z,77.53
2023-03-18T02:29:58.396Z,77.04
2023-03-18T02:32:42.921Z,77.17
2023-03-18T02:35:22.150Z,76.71
2023-03-18T02:38:07.991Z,76.08
2023-03-18T02:40:52.843Z,75.66
2023-03-18T02:43:36.853Z,75.23
2023-03-18T02:46:39.675Z,74.88
2023-03-18T02:49:24.685Z,74.67
2023-03-18T02:52:10.070Z,74.25
2023-03-18T02:54:49.987Z,73.85
2023-03-18T02:57:27.798Z,74.49
2023-03-18T03:00:15.134Z,74.67
2023-03-18T03:03:00.374Z,74.37
2023-03-18T03:05:42.416Z,73.64
2023-03-18T03:08:19.875Z,72.92
2023-03-18T03:10:59.388Z,73.04
2023-03-18T03:13:37.537Z,72.64
2023-03-18T03:16:17.087Z,71.99
2023-03-18T03:18:59.805Z,72.81
2023-03-18T03:21:52.127Z,74.13
2023-03-18T03:24:30.675Z,76.84
2023-03-18T03:27:15.863Z,78.06
2023-03-18T03:30:04.413Z,79.17
2023-03-18T03:32:42.268Z,79.38
2023-03-18T03:35:24.414Z,79.62
2023-03-18T03:38:16.256Z,80.32
2023-03-18T03:40:53.981Z,81.82
2023-03-18T03:43:34.790Z,82.21
2023-03-18T03:46:25.491Z,82.36
2023-03-18T03:49:09.975Z,82.86
2023-03-18T03:51:42.633Z,83.40
2023-03-18T03:54:20.503Z,83.50
2023-03-18T03:57:07.970Z,83.16
2023-03-18T03:59:54.217Z,83.98
2023-03-18T04:02:53.205Z,87.70
2023-03-18T04:05:34.042Z,86.79
2023-03-18T04:08:14.371Z,85.15
2023-03-18T04:10:59.363Z,84.94
2023-03-18T04:13:40.317Z,83.86
2023-03-18T04:16:26.270Z,83.01
2023-03-18T04:19:07.052Z,82.04
2023-03-18T04:21:55.177Z,79.75
2023-03-18T04:24:36.741Z,79.96
2023-03-18T04:27:23.666Z,79.90
2023-03-18T04:30:11.687Z,79.18
2023-03-18T04:33:02.186Z,79.52
2023-03-18T04:35:43.012Z,83.97
2023-03-18T04:38:28.550Z,87.92
2023-03-18T04:41:12.055Z,89.65
2023-03-18T04:43:57.848Z,91.02
2023-03-18T04:46:48.325Z,91.96
2023-03-18T04:49:43.629Z,91.97
2023-03-18T04:52:33.154Z,92.61
2023-03-18T04:55:17.006Z,91.32
2023-03-18T04:57:57.777Z,90.06
2023-03-18T05:00:44.213Z,89.52
2023-03-18T05:03:40.130Z,88.82
2023-03-18T05:06:37.495Z,88.72
2023-03-18T05:09:26.961Z,85.72
2023-03-18T05:12:16.289Z,85.50
2023-03-18T05:15:00.610Z,83.35
2023-03-18T05:17:44.578Z,82.22
2023-03-18T05:20:19.973Z,83.14
2023-03-18T05:22:56.608Z,82.82
2023-03-18T05:25:54.062Z,81.79
2023-03-18T05:28:42.871Z,80.93
2023-03-18T05:31:32.326Z,79.48
2023-03-18T05:34:21.722Z,76.51
2023-03-18T05:37:02.694Z,75.97
2023-03-18T05:39:47.710Z,75.44
2023-03-18T05:42:40.611Z,74.82
2023-03-18T05:45:38.620Z,74.31
2023-03-18T05:48:17.738Z,71.94
2023-03-18T05:51:17.582Z,72.15
2023-03-18T05:54:01.524Z,70.48
2023-03-18T05:56:52.969Z,69.75
2023-03-18T05:59:32.216Z,69.29
2023-03-18T06:02:13.561Z,68.32
2023-03-18T06:04:58.557Z,64.47
2023-03-18T06:07:45.847Z,64.92
2023-03-18T06:10:28.299Z,61.47
2023-03-18T06:13:16.775Z,60.28
2023-03-18T06:16:06.797Z,59.87
2023-03-18T06:18:42.890Z,59.42
2023-03-18T06:21:31.668Z,58.40
2023-03-18T06:24:15.841Z,57.12
2023-03-18T06:27:10.220Z,57.03
2023-03-18T06:29:56.149Z,55.52
2023-03-18T06:32:36.937Z,54.23
2023-03-18T06:35:18.958Z,53.34
2023-03-18T06:38:13.782Z,51.25
2023-03-18T06:40:58.113Z,51.11
2023-03-18T06:43:33.869Z,51.74
2023-03-18T06:46:19.826Z,49.62
2023-03-18T06:49:06.914Z,49.08
2023-03-18T06:51:54.446Z,48.85
2023-03-18T06:54:43.908Z,48.67
2023-03-18T06:57:35.435Z,48.02
2023-03-18T07:00:21.836Z,48.17
2023-03-18T07:03:03.179Z,48.43
2023-03-18T07:05:44.822Z,46.87
2023-03-18T07:08:34.139Z,46.60
2023-03-18T07:11:21.380Z,46.71
2023-03-18T07:14:00.385Z,46.37
2023-03-18T07:16:53.140Z,45.73
2023-03-18T07:19:42.675Z,45.19
2023-03-18T07:22:19.804Z,44.57
2023-03-18T07:25:04.871Z,44.70
2023-03-18T07:27:40.584Z,44.17
2023-03-18T07:30:24.296Z,45.79
2023-03-18T07:33:04.732Z,45.70
2023-03-18T07:35:58.246Z,44.09
2023-03-18T07:38:41.065Z,45.49
2023-03-18T07:41:29.609Z,46.04
2023-03-18T07:44:07.419Z,45.97
2023-03-18T07:46:51.167Z,45.14
2023-03-18T07:49:35.619Z,45.20
2023-03-18T07:52:13.674Z,45.71
2023-03-18T07:54:51.422Z,45.54
2023-03-18T07:57:39.657Z,45.28
2023-03-18T08:00:26.380Z,45.25
2023-03-18T08:03:07.378Z,46.16
2023-03-18T08:05:48.902Z,45.74
2023-03-18T08:08:36.917Z,45.55
2023-03-18T08:11:15.482Z,45.02
2023-03-18T08:13:58.677Z,45.32
2023-03-18T08:16:49.090Z,45.54
2023-03-18T08:19:24.927Z,44.34
2023-03-18T08:22:05.580Z,45.15
2023-03-18T08:24:45.919Z,43.54
2023-03-18T08:27:24.628Z,43.62
2023-03-18T08:30:11.926Z,43.94
2023-03-18T08:32:58.030Z,43.67
2023-03-18T08:35:42.681Z,43.61
2023-03-18T08:38:21.125Z,45.01
2023-03-18T08:41:04.087Z,43.90
2023-03-18T08:43:50.572Z,43.45
2023-03-18T08:46:32.055Z,42.85
2023-03-18T08:49:21.202Z,43.41
2023-03-18T08:52:04.562Z,43.18
2023-03-18T08:54:50.823Z,41.86
2023-03-18T08:57:39.352Z,41.38
2023-03-18T09:00:19.704Z,42.56
2023-03-18T09:03:00.948Z,41.30
2023-03-18T09:05:53.734Z,41.31
2023-03-18T09:08:33.212Z,40.35
2023-03-18T09:11:18.721Z,40.27
2023-03-18T09:14:00.488Z,40.44
2023-03-18T09:16:55.878Z,41.76
2023-03-18T09:19:39.020Z,40.93
2023-03-18T09:22:14.677Z,40.87
2023-03-18T09:24:55.950Z,41.29
2023-03-18T09:27:38.788Z,39.32
2023-03-18T09:30:25.746Z,39.24
2023-03-18T09:33:06.090Z,40.07
2023-03-18T09:35:47.474Z,39.00
2023-03-18T09:38:32.192Z,37.74
2023-03-18T09:41:15.763Z,39.17
2023-03-18T09:44:13.850Z,38.48
2023-03-18T09:47:06.492Z,38.74
2023-03-18T09:50:13.674Z,38.47
2023-03-18T09:53:24.660Z,40.33
2023-03-18T09:56:16.065Z,40.59
2023-03-18T09:58:56.904Z,40.17
2023-03-18T10:01:37.924Z,39.52
2023-03-18T10:05:01.598Z,37.78
2023-03-18T10:07:51.834Z,36.56
2023-03-18T10:10:38.469Z,35.86
2023-03-18T10:13:32.216Z,35.58
2023-03-18T10:16:26.882Z,35.46
2023-03-18T10:19:10.753Z,34.34
2023-03-18T10:22:09.816Z,35.17
2023-03-18T10:24:51.047Z,35.40
2023-03-18T10:28:08.580Z,33.71
2023-03-18T10:31:32.966Z,34.69
2023-03-18T10:34:27.428Z,34.79
2023-03-18T10:37:36.955Z,34.81
2023-03-18T10:40:38.851Z,33.00
2023-03-18T10:43:32.808Z,33.19
2023-03-18T10:46:14.406Z,34.42
2023-03-18T10:49:15.859Z,34.89
2023-03-18T10:52:06.080Z,33.95
2023-03-18T10:54:56.721Z,35.18
2023-03-18T10:57:32.745Z,35.18
2023-03-18T11:00:37.004Z,33.99
2023-03-18T11:03:30.937Z,34.31
2023-03-18T11:06:28.522Z,34.82
2023-03-18T11:09:15.024Z,33.78
2023-03-18T11:12:13.822Z,34.71
2023-03-18T11:14:55.440Z,35.37
2023-03-18T11:17:40.753Z,34.82
2023-03-18T11:20:43.036Z,35.00
2023-03-18T11:23:54.547Z,35.18
2023-03-18T11:26:48.799Z,34.53
2023-03-18T11:29:46.908Z,34.94
2023-03-18T11:32:49.905Z,35.00
2023-03-18T11:35:55.835Z,33.62
2023-03-18T11:38:44.185Z,35.19
2023-03-18T11:41:48.320Z,34.94
2023-03-18T11:44:40.584Z,35.26
2023-03-18T11:47:37.380Z,35.20
2023-03-18T11:50:30.493Z,34.47
2023-03-18T11:53:22.002Z,33.89
2023-03-18T11:56:27.624Z,34.49
2023-03-18T11:59:33.429Z,34.54
2023-03-18T12:02:52.978Z,33.94
2023-03-18T12:06:13.166Z,35.15
2023-03-18T12:09:08.889Z,34.62
2023-03-18T12:11:58.719Z,33.78
2023-03-18T12:15:10.090Z,32.76
2023-03-18T12:18:41.758Z,32.40
2023-03-18T12:21:49.807Z,32.42
2023-03-18T12:24:54.786Z,33.22
2023-03-18T12:27:55.331Z,35.06
2023-03-18T12:31:00.412Z,33.21
2023-03-18T12:33:58.427Z,33.28
2023-03-18T12:36:54.308Z,33.34
2023-03-18T12:39:45.934Z,34.67
2023-03-18T12:43:06.143Z,33.78
2023-03-18T12:46:13.229Z,33.35
2023-03-18T12:49:15.282Z,33.59
2023-03-18T12:51:59.746Z,33.75
2023-03-18T12:55:11.902Z,34.30
2023-03-18T12:58:07.198Z,34.08
2023-03-18T13:01:34.316Z,32.93
2023-03-18T13:04:29.453Z,32.87
2023-03-18T13:07:36.370Z,32.99
2023-03-18T13:10:30.728Z,33.35
2023-03-18T13:13:22.017Z,32.96
2023-03-18T13:16:10.754Z,31.83
2023-03-18T13:19:04.484Z,33.77
2023-03-18T13:21:53.612Z,34.42
2023-03-18T13:25:12.319Z,33.21
2023-03-18T13:28:08.176Z,33.82
2023-03-18T13:31:05.745Z,32.89
2023-03-18T13:34:14.085Z,32.15
2023-03-18T13:37:11.693Z,33.61
2023-03-18T13:40:13.920Z,34.11
2023-03-18T13:42:53.617Z,33.64
2023-03-18T13:45:51.706Z,31.35
2023-03-18T13:48:51.373Z,32.28
2023-03-18T13:51:50.778Z,32.52
2023-03-18T13:54:42.887Z,32.24
2023-03-18T13:57:40.774Z,32.42
2023-03-18T14:00:31.748Z,32.84
2023-03-18T14:03:29.936Z,32.89
2023-03-18T14:06:33.382Z,32.68
2023-03-18T14:09:36.421Z,32.76
2023-03-18T14:12:49.842Z,32.95
2023-03-18T14:15:51.156Z,33.09
2023-03-18T14:18:41.863Z,33.32
2023-03-18T14:21:55.780Z,34.06
2023-03-18T14:24:50.385Z,34.90
2023-03-18T14:27:38.754Z,35.12
2023-03-18T14:30:35.417Z,35.26
2023-03-18T14:33:33.236Z,36.25
2023-03-18T14:36:16.809Z,36.02
2023-03-18T14:39:11.416Z,37.19
2023-03-18T14:42:15.056Z,36.85
2023-03-18T14:45:09.515Z,38.25
2023-03-18T14:47:57.498Z,37.49
2023-03-18T14:51:00.277Z,38.10
2023-03-18T14:53:53.228Z,38.37
2023-03-18T14:56:35.599Z,38.61
2023-03-18T14:59:06.882Z,37.88
2023-03-18T15:01:53.940Z,39.18
2023-03-18T15:04:43.997Z,38.28
2023-03-18T15:07:49.616Z,38.79
2023-03-18T15:10:41.437Z,38.11
2023-03-18T15:13:19.780Z,37.56
2023-03-18T15:16:06.774Z,37.44
2023-03-18T15:18:53.136Z,38.63
2023-03-18T15:21:57.154Z,37.35
2023-03-18T15:24:50.976Z,37.75
2023-03-18T15:27:32.059Z,38.75
2023-03-18T15:30:42.448Z,38.29
2023-03-18T15:33:37.224Z,38.75
2023-03-18T15:36:25.709Z,38.26
2023-03-18T15:39:08.642Z,37.34
2023-03-18T15:41:47.311Z,37.61
2023-03-18T15:44:40.999Z,37.58
2023-03-18T15:47:29.837Z,37.51
2023-03-18T15:50:36.926Z,38.39
2023-03-18T15:53:33.837Z,39.47
2023-03-18T15:56:49.593Z,39.31
2023-03-18T15:59:35.850Z,38.98
2023-03-18T16:02:40.375Z,39.52
2023-03-18T16:05:33.936Z,41.19
2023-03-18T16:08:15.237Z,41.40
2023-03-18T16:10:58.888Z,41.50
2023-03-18T16:13:39.556Z,41.30
2023-03-18T16:16:31.662Z,40.30
2023-03-18T16:19:27.686Z,39.88
2023-03-18T16:22:14.106Z,39.44
2023-03-18T16:25:00.457Z,39.37
2023-03-18T16:27:48.927Z,38.05
2023-03-18T16:30:44.569Z,36.99
2023-03-18T16:33:29.910Z,37.05
2023-03-18T16:36:09.667Z,36.99
2023-03-18T16:39:02.904Z,38.57
2023-03-18T16:41:44.138Z,39.92
2023-03-18T16:44:28.639Z,41.42
2023-03-18T16:47:09.649Z,42.48
2023-03-18T16:49:44.506Z,43.44
2023-03-18T16:52:29.688Z,44.76
2023-03-18T16:55:11.771Z,45.44
2023-03-18T16:57:55.475Z,46.11
2023-03-18T17:00:33.500Z,46.97
2023-03-18T17:03:30.098Z,47.38
2023-03-18T17:06:12.894Z,48.77
2023-03-18T17:08:56.813Z,48.97
2023-03-18T17:11:42.832Z,49.39
2023-03-18T17:15:18.056Z,49.87
2023-03-18T17:18:05.599Z,50.32
2023-03-18T17:20:52.527Z,50.83
2023-03-18T17:23:42.093Z,51.32
2023-03-18T17:26:31.636Z,51.71
2023-03-18T17:29:10.829Z,52.19
2023-03-18T17:31:51.859Z,52.82
2023-03-18T17:34:30.711Z,53.11
2023-03-18T17:37:06.784Z,53.73
2023-03-18T17:39:42.123Z,54.61
2023-03-18T17:42:41.380Z,54.61
2023-03-18T17:45:48.742Z,54.79
2023-03-18T17:48:38.400Z,55.24
2023-03-18T17:51:23.900Z,55.66
2023-03-18T17:54:13.528Z,55.90
2023-03-18T17:56:54.630Z,56.27
2023-03-18T17:59:33.342Z,56.51
2023-03-18T18:02:29.177Z,56.66
2023-03-18T18:05:04.937Z,57.24
2023-03-18T18:07:50.765Z,57.41
2023-03-18T18:10:38.609Z,58.34
2023-03-18T18:13:19.854Z,58.98
2023-03-18T18:15:59.785Z,59.38
2023-03-18T18:18:50.015Z,60.29
2023-03-18T18:21:34.061Z,60.78
2023-03-18T18:24:21.557Z,61.44
2023-03-18T18:27:04.639Z,62.51
2023-03-18T18:29:53.635Z,62.84
2023-03-18T18:32:36.076Z,63.38
2023-03-18T18:35:25.405Z,64.02
2023-03-18T18:38:13.088Z,65.05
2023-03-18T18:40:51.269Z,65.52
2023-03-18T18:43:43.598Z,65.49
2023-03-18T18:46:21.174Z,65.52
2023-03-18T18:49:02.656Z,65.50
2023-03-18T18:52:04.415Z,66.08
2023-03-18T18:54:47.317Z,69.25
2023-03-18T18:57:48.502Z,73.22
2023-03-18T19:00:32.116Z,72.76
2023-03-18T19:03:22.987Z,71.31
2023-03-18T19:06:02.152Z,70.61
2023-03-18T19:08:45.662Z,70.66
2023-03-18T19:11:27.251Z,70.52
2023-03-18T19:14:29.205Z,71.05
2023-03-18T19:17:19.303Z,70.30
2023-03-18T19:20:05.525Z,70.64
2023-03-18T19:22:53.664Z,70.24
2023-03-18T19:25:37.770Z,70.57
2023-03-18T19:29:01.377Z,70.70
2023-03-18T19:31:44.866Z,71.04
2023-03-18T19:34:32.279Z,70.64
2023-03-18T19:37:06.938Z,70.18
2023-03-18T19:39:57.679Z,69.95
2023-03-18T19:42:43.968Z,70.31
2023-03-18T19:45:21.651Z,70.48
2023-03-18T19:48:07.143Z,70.64
2023-03-18T19:50:53.025Z,70.59
2023-03-18T19:53:33.801Z,71.05
2023-03-18T19:56:26.633Z,71.14
2023-03-18T19:59:07.336Z,72.06
2023-03-18T20:01:48.118Z,72.33
2023-03-18T20:04:34.933Z,76.73
2023-03-18T20:07:16.754Z,76.52
2023-03-18T20:09:58.114Z,76.46
2023-03-18T20:12:45.390Z,77.12
2023-03-18T20:15:28.923Z,78.55
2023-03-18T20:18:15.584Z,79.01
2023-03-18T20:20:58.840Z,79.28
2023-03-18T20:23:44.984Z,79.52
2023-03-18T20:26:23.779Z,80.56
2023-03-18T20:29:04.633Z,80.42
2023-03-18T20:31:39.642Z,81.13
2023-03-18T20:34:29.145Z,80.85
2023-03-18T20:37:11.938Z,82.96
2023-03-18T20:39:58.680Z,82.67
2023-03-18T20:42:48.921Z,82.70
2023-03-18T20:45:27.522Z,83.09
2023-03-18T20:48:11.085Z,82.75
2023-03-18T20:50:55.422Z,82.96
2023-03-18T20:53:47.175Z,83.72
2023-03-18T20:56:38.755Z,83.80
2023-03-18T20:59:15.800Z,84.38
2023-03-18T21:01:59.313Z,84.65
2023-03-18T21:04:46.721Z,85.01
2023-03-18T21:07:36.172Z,85.39
2023-03-18T21:10:16.219Z,86.42
2023-03-18T21:12:58.467Z,85.51
2023-03-18T21:15:41.392Z,86.51
2023-03-18T21:18:26.232Z,86.68
2023-03-18T21:21:06.180Z,88.29
2023-03-18T21:23:54.609Z,87.88
2023-03-18T21:26:41.982Z,87.75
2023-03-18T21:29:25.545Z,89.63
2023-03-18T21:32:13.114Z,88.78
2023-03-18T21:34:54.863Z,89.14
2023-03-18T21:37:36.314Z,88.53
2023-03-18T21:40:17.083Z,88.56
2023-03-18T21:43:00.367Z,89.63
2023-03-18T21:45:44.322Z,90.12
2023-03-18T21:48:33.467Z,89.25
2023-03-18T21:51:44.309Z,89.46
2023-03-18T21:54:24.281Z,90.19
2023-03-18T21:57:07.488Z,90.56
2023-03-18T21:59:49.878Z,89.71
2023-03-18T22:02:43.213Z,89.19
2023-03-18T22:05:25.880Z,89.90
2023-03-18T22:08:17.976Z,90.67
2023-03-18T22:11:24.989Z,91.18
2023-03-18T22:14:07.984Z,91.46
2023-03-18T22:16:51.519Z,91.00
2023-03-18T22:19:34.740Z,91.04
2023-03-18T22:22:32.238Z,91.38
2023-03-18T22:25:42.125Z,91.17
2023-03-18T22:28:31.324Z,91.07
2023-03-18T22:31:21.400Z,92.09
2023-03-18T22:34:04.762Z,91.88
2023-03-18T22:36:48.307Z,91.72
2023-03-18T22:39:34.076Z,93.73
2023-03-18T22:42:27.457Z,93.34
2023-03-18T22:45:09.951Z,93.33
2023-03-18T22:47:52.789Z,94.14
2023-03-18T22:50:38.348Z,95.17
2023-03-18T22:53:21.324Z,97.15
2023-03-18T22:56:16.189Z,97.16
2023-03-18T22:58:57.095Z,100.00
2023-03-18T23:01:40.752Z,100.00
2023-03-18T23:04:31.978Z,99.93
2023-03-18T23:07:33.061Z,99.11
2023-03-18T23:10:25.298Z,99.38
2023-03-18T23:13:16.485Z,99.78
2023-03-18T23:16:02.266Z,100.00
2023-03-18T23:18:39.660Z,100.00
2023-03-18T23:21:35.387Z,100.00
2023-03-18T23:24:18.948Z,100.00
2023-03-18T23:26:59.828Z,100.00
2023-03-18T23:29:43.713Z,100.00
2023-03-18T23:32:25.369Z,100.00
2023-03-18T23:35:10.769Z,100.00
2023-03-18T23:37:47.746Z,100.00
2023-03-18T23:40:26.757Z,100.00
2023-03-18T23:43:11.964Z,100.00
2023-03-18T23:45:53.074Z,100.00
2023-03-18T23:48:42.237Z,100.00
2023-03-18T23:51:26.361Z,100.00
2023-03-18T23:54:09.845Z,100.00
2023-03-18T23:56:50.352Z,100.00
2023-03-18T23:59:25.907Z,100.00
